sensor_id;sensor_type;location;lat;lon;timestamp;pressure;altitude;pressure_sealevel;temperature;humidity
30343;BME280;17145;49.902;8.680;'2022-10-16 01:57:39';99780;;;15;66
30343;BME280;17145;49.902;8.680;'2022-10-16 02:00:08';99780;;;15;66
30343;BME280;17145;49.902;8.680;'2022-10-16 02:02:35';99780;;;15;66
30343;BME280;17145;49.902;8.680;'2022-10-16 02:05:04';99770;;;16;66
30343;BME280;17145;49.902;8.680;'2022-10-16 02:07:31';99770;;;16;66
30343;BME280;17145;49.902;8.680;'2022-10-16 02:09:58';99770;;;16;65
30343;BME280;17145;49.902;8.680;'2022-10-16 02:12:26';99770;;;15;65
30343;BME280;17145;49.902;8.680;'2022-10-16 02:14:53';99770;;;16;66
30343;BME280;17145;49.902;8.680;'2022-10-16 02:17:21';99780;;;15;66
30343;BME280;17145;49.902;8.680;'2022-10-16 02:19:48';99780;;;15;66
30343;BME280;17145;49.902;8.680;'2022-10-16 02:22:16';99780;;;15;66
30343;BME280;17145;49.902;8.680;'2022-10-16 02:24:43';99770;;;15;66
30343;BME280;17145;49.902;8.680;'2022-10-16 02:27:11';99770;;;15;66
30343;BME280;17145;49.902;8.680;'2022-10-16 02:29:38';99770;;;15;66
30343;BME280;17145;49.902;8.680;'2022-10-16 02:32:05';99780;;;15;66
30343;BME280;17145;49.902;8.680;'2022-10-16 02:34:33';99780;;;15;66
30343;BME280;17145;49.902;8.680;'2022-10-16 02:37:00';99780;;;15;66
30343;BME280;17145;49.902;8.680;'2022-10-16 02:39:28';99780;;;15;65
30343;BME280;17145;49.902;8.680;'2022-10-16 02:41:55';99780;;;15;65
30343;BME280;17145;49.902;8.680;'2022-10-16 02:44:43';99780;;;15;65
30343;BME280;17145;49.902;8.680;'2022-10-16 02:47:12';99780;;;15;65
30343;BME280;17145;49.902;8.680;'2022-10-16 02:49:40';99780;;;15;65
30343;BME280;17145;49.902;8.680;'2022-10-16 02:52:09';99780;;;15;65
30343;BME280;17145;49.902;8.680;'2022-10-16 02:54:37';99780;;;16;65
30343;BME280;17145;49.902;8.680;'2022-10-16 02:57:06';99790;;;16;64
30343;BME280;17145;49.902;8.680;'2022-10-16 02:59:36';99790;;;15;64
30343;BME280;17145;49.902;8.680;'2022-10-16 03:02:06';99790;;;15;63
30343;BME280;17145;49.902;8.680;'2022-10-16 03:04:37';99790;;;15;63
30343;BME280;17145;49.902;8.680;'2022-10-16 03:07:12';99790;;;15;63
30343;BME280;17145;49.902;8.680;'2022-10-16 03:09:51';99790;;;16;63
30343;BME280;17145;49.902;8.680;'2022-10-16 03:12:28';99800;;;15;63
30343;BME280;17145;49.902;8.680;'2022-10-16 03:15:02';99810;;;15;63
30343;BME280;17145;49.902;8.680;'2022-10-16 03:17:39';99810;;;15;63
30343;BME280;17145;49.902;8.680;'2022-10-16 03:20:14';99800;;;15;63
30343;BME280;17145;49.902;8.680;'2022-10-16 03:22:55';99800;;;15;63
30343;BME280;17145;49.902;8.680;'2022-10-16 03:25:30';99800;;;15;63
30343;BME280;17145;49.902;8.680;'2022-10-16 03:28:01';99800;;;15;63
30343;BME280;17145;49.902;8.680;'2022-10-16 03:30:32';99810;;;16;63
30343;BME280;17145;49.902;8.680;'2022-10-16 03:33:06';99810;;;15;63
30343;BME280;17145;49.902;8.680;'2022-10-16 03:35:39';99810;;;15;63
30343;BME280;17145;49.902;8.680;'2022-10-16 03:38:12';99800;;;15;62
30343;BME280;17145;49.902;8.680;'2022-10-16 03:40:45';99800;;;15;63
30343;BME280;17145;49.902;8.680;'2022-10-16 03:43:17';99810;;;15;63
30343;BME280;17145;49.902;8.680;'2022-10-16 03:45:46';99810;;;15;63
30343;BME280;17145;49.902;8.680;'2022-10-16 03:48:17';99810;;;16;63
30343;BME280;17145;49.902;8.680;'2022-10-16 03:50:54';99820;;;15;63
30343;BME280;17145;49.902;8.680;'2022-10-16 03:53:24';99820;;;15;63
30343;BME280;17145;49.902;8.680;'2022-10-16 03:55:55';99820;;;15;63
30343;BME280;17145;49.902;8.680;'2022-10-16 03:58:25';99830;;;15;63
30343;BME280;17145;49.902;8.680;'2022-10-16 04:00:54';99830;;;15;63
30343;BME280;17145;49.902;8.680;'2022-10-16 04:03:22';99830;;;16;63
30343;BME280;17145;49.902;8.680;'2022-10-16 04:05:53';99840;;;16;63
30343;BME280;17145;49.902;8.680;'2022-10-16 04:08:22';99820;;;15;63
30343;BME280;17145;49.902;8.680;'2022-10-16 04:10:50';99820;;;16;63
30343;BME280;17145;49.902;8.680;'2022-10-16 04:13:23';99820;;;15;63
30343;BME280;17145;49.902;8.680;'2022-10-16 04:15:51';99820;;;15;63
30343;BME280;17145;49.902;8.680;'2022-10-16 04:18:19';99820;;;16;63
30343;BME280;17145;49.902;8.680;'2022-10-16 04:20:52';99810;;;15;63
30343;BME280;17145;49.902;8.680;'2022-10-16 04:23:28';99820;;;15;63
30343;BME280;17145;49.902;8.680;'2022-10-16 04:25:58';99820;;;15;63
30343;BME280;17145;49.902;8.680;'2022-10-16 04:28:34';99820;;;15;63
30343;BME280;17145;49.902;8.680;'2022-10-16 04:31:08';99810;;;16;63
30343;BME280;17145;49.902;8.680;'2022-10-16 04:33:38';99810;;;15;63
30343;BME280;17145;49.902;8.680;'2022-10-16 04:36:07';99810;;;15;63
30343;BME280;17145;49.902;8.680;'2022-10-16 04:38:36';99810;;;15;63
30343;BME280;17145;49.902;8.680;'2022-10-16 04:41:04';99810;;;15;63
30343;BME280;17145;49.902;8.680;'2022-10-16 04:43:32';99810;;;16;63
30343;BME280;17145;49.902;8.680;'2022-10-16 04:45:59';99820;;;16;63
30343;BME280;17145;49.902;8.680;'2022-10-16 04:48:27';99820;;;16;63
30343;BME280;17145;49.902;8.680;'2022-10-16 04:50:55';99830;;;16;63
30343;BME280;17145;49.902;8.680;'2022-10-16 04:53:22';99830;;;16;63
30343;BME280;17145;49.902;8.680;'2022-10-16 04:55:49';99830;;;16;63
30343;BME280;17145;49.902;8.680;'2022-10-16 04:58:17';99830;;;15;63
30343;BME280;17145;49.902;8.680;'2022-10-16 05:00:44';99840;;;16;63
30343;BME280;17145;49.902;8.680;'2022-10-16 05:03:12';99840;;;15;64
30343;BME280;17145;49.902;8.680;'2022-10-16 05:05:39';99840;;;15;64
30343;BME280;17145;49.902;8.680;'2022-10-16 05:08:07';99850;;;15;64
30343;BME280;17145;49.902;8.680;'2022-10-16 05:10:34';99850;;;15;64
30343;BME280;17145;49.902;8.680;'2022-10-16 05:13:02';99850;;;16;64
30343;BME280;17145;49.902;8.680;'2022-10-16 05:15:29';99850;;;16;64
30343;BME280;17145;49.902;8.680;'2022-10-16 05:17:57';99850;;;16;64
30343;BME280;17145;49.902;8.680;'2022-10-16 05:20:25';99840;;;15;65
30343;BME280;17145;49.902;8.680;'2022-10-16 05:22:53';99840;;;15;65
30343;BME280;17145;49.902;8.680;'2022-10-16 05:25:20';99840;;;15;65
30343;BME280;17145;49.902;8.680;'2022-10-16 05:27:48';99840;;;16;65
30343;BME280;17145;49.902;8.680;'2022-10-16 05:30:15';99840;;;15;65
30343;BME280;17145;49.902;8.680;'2022-10-16 05:32:44';99840;;;15;65
30343;BME280;17145;49.902;8.680;'2022-10-16 05:35:11';99850;;;15;65
30343;BME280;17145;49.902;8.680;'2022-10-16 05:37:39';99850;;;15;64
30343;BME280;17145;49.902;8.680;'2022-10-16 05:40:07';99850;;;15;64
30343;BME280;17145;49.902;8.680;'2022-10-16 05:42:35';99860;;;15;64
30343;BME280;17145;49.902;8.680;'2022-10-16 05:45:03';99860;;;15;64
30343;BME280;17145;49.902;8.680;'2022-10-16 05:47:30';99860;;;16;64
30343;BME280;17145;49.902;8.680;'2022-10-16 05:49:58';99860;;;16;64
30343;BME280;17145;49.902;8.680;'2022-10-16 05:52:25';99860;;;16;64
30343;BME280;17145;49.902;8.680;'2022-10-16 05:54:53';99860;;;16;64
30343;BME280;17145;49.902;8.680;'2022-10-16 05:57:20';99860;;;16;64
30343;BME280;17145;49.902;8.680;'2022-10-16 05:59:48';99860;;;16;64
30343;BME280;17145;49.902;8.680;'2022-10-16 06:02:15';99870;;;16;64
30343;BME280;17145;49.902;8.680;'2022-10-16 06:04:43';99880;;;16;64
30343;BME280;17145;49.902;8.680;'2022-10-16 06:07:10';99870;;;16;64
30343;BME280;17145;49.902;8.680;'2022-10-16 06:09:37';99850;;;16;64
30343;BME280;17145;49.902;8.680;'2022-10-16 06:12:05';99840;;;16;64
30343;BME280;17145;49.902;8.680;'2022-10-16 06:14:32';99860;;;16;64
30343;BME280;17145;49.902;8.680;'2022-10-16 06:17:00';99860;;;16;64
30343;BME280;17145;49.902;8.680;'2022-10-16 06:19:27';99860;;;16;64
30343;BME280;17145;49.902;8.680;'2022-10-16 06:21:55';99860;;;16;64
30343;BME280;17145;49.902;8.680;'2022-10-16 06:24:22';99870;;;16;64
30343;BME280;17145;49.902;8.680;'2022-10-16 06:26:50';99880;;;16;65
30343;BME280;17145;49.902;8.680;'2022-10-16 06:29:17';99880;;;16;65
30343;BME280;17145;49.902;8.680;'2022-10-16 06:31:46';99880;;;16;64
30343;BME280;17145;49.902;8.680;'2022-10-16 06:34:13';99870;;;16;64
30343;BME280;17145;49.902;8.680;'2022-10-16 06:36:41';99860;;;16;64
30343;BME280;17145;49.902;8.680;'2022-10-16 06:39:08';99860;;;16;64
30343;BME280;17145;49.902;8.680;'2022-10-16 06:41:36';99870;;;16;64
30343;BME280;17145;49.902;8.680;'2022-10-16 06:44:03';99880;;;16;64
30343;BME280;17145;49.902;8.680;'2022-10-16 06:46:31';99870;;;16;64
30343;BME280;17145;49.902;8.680;'2022-10-16 06:48:59';99870;;;16;64
30343;BME280;17145;49.902;8.680;'2022-10-16 06:51:26';99870;;;16;64
30343;BME280;17145;49.902;8.680;'2022-10-16 06:53:54';99870;;;16;64
30343;BME280;17145;49.902;8.680;'2022-10-16 06:56:21';99870;;;16;64
30343;BME280;17145;49.902;8.680;'2022-10-16 06:58:49';99870;;;16;64
30343;BME280;17145;49.902;8.680;'2022-10-16 07:01:16';99880;;;16;64
30343;BME280;17145;49.902;8.680;'2022-10-16 07:03:44';99880;;;16;64
30343;BME280;17145;49.902;8.680;'2022-10-16 07:06:12';99880;;;16;64
30343;BME280;17145;49.902;8.680;'2022-10-16 07:08:39';99880;;;16;64
30343;BME280;17145;49.902;8.680;'2022-10-16 07:11:07';99870;;;16;64
30343;BME280;17145;49.902;8.680;'2022-10-16 07:13:35';99880;;;16;64
30343;BME280;17145;49.902;8.680;'2022-10-16 07:16:02';99870;;;16;65
30343;BME280;17145;49.902;8.680;'2022-10-16 07:18:30';99870;;;16;64
30343;BME280;17145;49.902;8.680;'2022-10-16 07:20:57';99880;;;16;64
30343;BME280;17145;49.902;8.680;'2022-10-16 07:23:25';99880;;;16;64
30343;BME280;17145;49.902;8.680;'2022-10-16 07:25:54';99880;;;16;64
30343;BME280;17145;49.902;8.680;'2022-10-16 07:28:21';99880;;;16;64
30343;BME280;17145;49.902;8.680;'2022-10-16 07:30:49';99880;;;16;64
30343;BME280;17145;49.902;8.680;'2022-10-16 07:33:19';99880;;;16;64
30343;BME280;17145;49.902;8.680;'2022-10-16 07:35:46';99880;;;16;64
30343;BME280;17145;49.902;8.680;'2022-10-16 07:38:14';99880;;;16;64
30343;BME280;17145;49.902;8.680;'2022-10-16 07:40:42';99880;;;16;64
30343;BME280;17145;49.902;8.680;'2022-10-16 07:43:09';99880;;;15;63
30343;BME280;17145;49.902;8.680;'2022-10-16 07:45:37';99890;;;15;63
30343;BME280;17145;49.902;8.680;'2022-10-16 07:48:05';99890;;;15;63
30343;BME280;17145;49.902;8.680;'2022-10-16 07:50:32';99890;;;15;63
30343;BME280;17145;49.902;8.680;'2022-10-16 07:53:00';99890;;;15;63
30343;BME280;17145;49.902;8.680;'2022-10-16 07:55:28';99910;;;15;63
30343;BME280;17145;49.902;8.680;'2022-10-16 07:57:56';99920;;;16;63
30343;BME280;17145;49.902;8.680;'2022-10-16 08:00:23';99920;;;15;63
30343;BME280;17145;49.902;8.680;'2022-10-16 08:02:50';99920;;;15;63
30343;BME280;17145;49.902;8.680;'2022-10-16 08:05:18';99930;;;15;63
30343;BME280;17145;49.902;8.680;'2022-10-16 08:07:45';99940;;;15;63
30343;BME280;17145;49.902;8.680;'2022-10-16 08:10:13';99930;;;15;63
30343;BME280;17145;49.902;8.680;'2022-10-16 08:12:40';99940;;;15;64
30343;BME280;17145;49.902;8.680;'2022-10-16 08:15:08';99930;;;15;64
30343;BME280;17145;49.902;8.680;'2022-10-16 08:17:36';99940;;;15;64
30343;BME280;17145;49.902;8.680;'2022-10-16 08:20:04';99940;;;15;64
30343;BME280;17145;49.902;8.680;'2022-10-16 08:22:31';99940;;;15;64
30343;BME280;17145;49.902;8.680;'2022-10-16 08:24:59';99940;;;15;64
30343;BME280;17145;49.902;8.680;'2022-10-16 08:27:26';99940;;;15;64
30343;BME280;17145;49.902;8.680;'2022-10-16 08:29:54';99930;;;15;64
30343;BME280;17145;49.902;8.680;'2022-10-16 08:32:22';99940;;;15;64
30343;BME280;17145;49.902;8.680;'2022-10-16 08:34:49';99940;;;15;64
30343;BME280;17145;49.902;8.680;'2022-10-16 08:37:17';99940;;;15;64
30343;BME280;17145;49.902;8.680;'2022-10-16 08:39:44';99940;;;15;64
30343;BME280;17145;49.902;8.680;'2022-10-16 08:42:12';99940;;;15;64
30343;BME280;17145;49.902;8.680;'2022-10-16 08:44:39';99950;;;15;64
30343;BME280;17145;49.902;8.680;'2022-10-16 08:47:07';99950;;;15;64
30343;BME280;17145;49.902;8.680;'2022-10-16 08:49:34';99950;;;15;64
30343;BME280;17145;49.902;8.680;'2022-10-16 08:52:02';99960;;;15;64
30343;BME280;17145;49.902;8.680;'2022-10-16 08:54:30';99960;;;15;64
30343;BME280;17145;49.902;8.680;'2022-10-16 08:56:58';99960;;;15;64
30343;BME280;17145;49.902;8.680;'2022-10-16 08:59:26';99960;;;15;64
30343;BME280;17145;49.902;8.680;'2022-10-16 09:01:53';99960;;;16;64
30343;BME280;17145;49.902;8.680;'2022-10-16 09:04:21';99960;;;16;64
30343;BME280;17145;49.902;8.680;'2022-10-16 09:06:48';99960;;;16;64
30343;BME280;17145;49.902;8.680;'2022-10-16 09:09:16';99970;;;16;64
30343;BME280;17145;49.902;8.680;'2022-10-16 09:11:43';99970;;;16;64
30343;BME280;17145;49.902;8.680;'2022-10-16 09:14:16';99970;;;16;65
30343;BME280;17145;49.902;8.680;'2022-10-16 09:16:44';99980;;;16;65
30343;BME280;17145;49.902;8.680;'2022-10-16 09:19:11';99980;;;16;64
30343;BME280;17145;49.902;8.680;'2022-10-16 09:21:39';99990;;;16;64
30343;BME280;17145;49.902;8.680;'2022-10-16 09:24:11';99990;;;16;64
30343;BME280;17145;49.902;8.680;'2022-10-16 09:26:39';100000;;;16;64
30343;BME280;17145;49.902;8.680;'2022-10-16 09:29:11';100010;;;16;64
30343;BME280;17145;49.902;8.680;'2022-10-16 09:31:39';100000;;;16;64
30343;BME280;17145;49.902;8.680;'2022-10-16 09:34:07';100010;;;16;64
30343;BME280;17145;49.902;8.680;'2022-10-16 09:36:34';100010;;;16;64
30343;BME280;17145;49.902;8.680;'2022-10-16 09:39:02';100010;;;16;64
30343;BME280;17145;49.902;8.680;'2022-10-16 09:41:30';100020;;;16;63
30343;BME280;17145;49.902;8.680;'2022-10-16 09:43:58';100020;;;16;63
30343;BME280;17145;49.902;8.680;'2022-10-16 09:46:26';100010;;;16;63
30343;BME280;17145;49.902;8.680;'2022-10-16 09:48:54';100020;;;16;63
30343;BME280;17145;49.902;8.680;'2022-10-16 09:51:24';100020;;;16;63
30343;BME280;17145;49.902;8.680;'2022-10-16 09:53:52';100020;;;16;63
30343;BME280;17145;49.902;8.680;'2022-10-16 09:56:21';100020;;;16;63
30343;BME280;17145;49.902;8.680;'2022-10-16 09:58:49';100020;;;16;63
30343;BME280;17145;49.902;8.680;'2022-10-16 10:01:18';100020;;;16;63
30343;BME280;17145;49.902;8.680;'2022-10-16 10:03:47';100020;;;17;62
30343;BME280;17145;49.902;8.680;'2022-10-16 10:06:15';100030;;;17;63
30343;BME280;17145;49.902;8.680;'2022-10-16 10:08:42';100040;;;17;63
30343;BME280;17145;49.902;8.680;'2022-10-16 10:11:10';100050;;;16;62
30343;BME280;17145;49.902;8.680;'2022-10-16 10:13:38';100050;;;17;63
30343;BME280;17145;49.902;8.680;'2022-10-16 10:16:06';100060;;;17;62
30343;BME280;17145;49.902;8.680;'2022-10-16 10:18:34';100060;;;17;63
30343;BME280;17145;49.902;8.680;'2022-10-16 10:21:02';100060;;;16;63
30343;BME280;17145;49.902;8.680;'2022-10-16 10:23:30';100070;;;16;63
30343;BME280;17145;49.902;8.680;'2022-10-16 10:26:04';100070;;;17;63
30343;BME280;17145;49.902;8.680;'2022-10-16 10:28:32';100070;;;17;62
30343;BME280;17145;49.902;8.680;'2022-10-16 10:31:05';100080;;;16;63
30343;BME280;17145;49.902;8.680;'2022-10-16 10:33:33';100090;;;16;62
30343;BME280;17145;49.902;8.680;'2022-10-16 10:36:00';100090;;;16;63
30343;BME280;17145;49.902;8.680;'2022-10-16 10:38:28';100110;;;16;63
30343;BME280;17145;49.902;8.680;'2022-10-16 10:41:06';100120;;;16;63
30343;BME280;17145;49.902;8.680;'2022-10-16 10:43:48';100120;;;16;63
30343;BME280;17145;49.902;8.680;'2022-10-16 10:46:29';100120;;;16;63
30343;BME280;17145;49.902;8.680;'2022-10-16 10:48:59';100120;;;16;64
30343;BME280;17145;49.902;8.680;'2022-10-16 10:51:29';100110;;;16;64
30343;BME280;17145;49.902;8.680;'2022-10-16 10:53:58';100110;;;16;64
30343;BME280;17145;49.902;8.680;'2022-10-16 10:56:27';100120;;;16;64
30343;BME280;17145;49.902;8.680;'2022-10-16 10:58:57';100120;;;16;65
30343;BME280;17145;49.902;8.680;'2022-10-16 11:04:13';100140;;;16;65
30343;BME280;17145;49.902;8.680;'2022-10-16 11:06:46';100140;;;16;65
30343;BME280;17145;49.902;8.680;'2022-10-16 11:09:35';100140;;;16;65
30343;BME280;17145;49.902;8.680;'2022-10-16 11:12:12';100150;;;16;64
30343;BME280;17145;49.902;8.680;'2022-10-16 11:14:54';100150;;;16;65
30343;BME280;17145;49.902;8.680;'2022-10-16 11:17:32';100150;;;16;64
30343;BME280;17145;49.902;8.680;'2022-10-16 11:20:16';100160;;;16;65
30343;BME280;17145;49.902;8.680;'2022-10-16 11:22:44';100160;;;16;65
30343;BME280;17145;49.902;8.680;'2022-10-16 11:25:14';100160;;;16;66
30343;BME280;17145;49.902;8.680;'2022-10-16 11:27:46';100160;;;16;66
30343;BME280;17145;49.902;8.680;'2022-10-16 11:30:17';100160;;;16;65
30343;BME280;17145;49.902;8.680;'2022-10-16 11:32:48';100160;;;16;65
30343;BME280;17145;49.902;8.680;'2022-10-16 11:35:20';100160;;;16;65
30343;BME280;17145;49.902;8.680;'2022-10-16 11:37:50';100160;;;17;65
30343;BME280;17145;49.902;8.680;'2022-10-16 11:40:24';100160;;;16;64
30343;BME280;17145;49.902;8.680;'2022-10-16 11:43:01';100170;;;17;65
30343;BME280;17145;49.902;8.680;'2022-10-16 11:45:29';100170;;;17;64
30343;BME280;17145;49.902;8.680;'2022-10-16 11:47:58';100170;;;17;64
30343;BME280;17145;49.902;8.680;'2022-10-16 11:50:28';100170;;;17;64
30343;BME280;17145;49.902;8.680;'2022-10-16 11:53:05';100180;;;17;64
30343;BME280;17145;49.902;8.680;'2022-10-16 11:55:33';100180;;;17;63
30343;BME280;17145;49.902;8.680;'2022-10-16 11:58:01';100180;;;17;64
30343;BME280;17145;49.902;8.680;'2022-10-16 12:00:29';100180;;;17;64
30343;BME280;17145;49.902;8.680;'2022-10-16 12:02:56';100180;;;17;63
30343;BME280;17145;49.902;8.680;'2022-10-16 12:05:27';100180;;;17;62
30343;BME280;17145;49.902;8.680;'2022-10-16 12:07:57';100180;;;18;63
30343;BME280;17145;49.902;8.680;'2022-10-16 12:10:27';100170;;;18;62
30343;BME280;17145;49.902;8.680;'2022-10-16 12:12:55';100180;;;18;62
30343;BME280;17145;49.902;8.680;'2022-10-16 12:15:24';100190;;;18;61
30343;BME280;17145;49.902;8.680;'2022-10-16 12:17:53';100190;;;18;60
30343;BME280;17145;49.902;8.680;'2022-10-16 12:20:26';100190;;;18;61
30343;BME280;17145;49.902;8.680;'2022-10-16 12:22:54';100190;;;18;61
30343;BME280;17145;49.902;8.680;'2022-10-16 12:28:16';100180;;;19;63
30343;BME280;17145;49.902;8.680;'2022-10-16 12:30:51';100180;;;19;65
30343;BME280;17145;49.902;8.680;'2022-10-16 12:33:28';100180;;;19;60
30343;BME280;17145;49.902;8.680;'2022-10-16 12:36:07';100180;;;19;58
30343;BME280;17145;49.902;8.680;'2022-10-16 12:38:43';100190;;;19;59
30343;BME280;17145;49.902;8.680;'2022-10-16 12:41:27';100180;;;19;58
30343;BME280;17145;49.902;8.680;'2022-10-16 12:44:06';100180;;;20;58
30343;BME280;17145;49.902;8.680;'2022-10-16 12:46:38';100180;;;19;56
30343;BME280;17145;49.902;8.680;'2022-10-16 12:49:19';100170;;;20;57
30343;BME280;17145;49.902;8.680;'2022-10-16 12:51:57';100170;;;19;55
30343;BME280;17145;49.902;8.680;'2022-10-16 12:54:33';100170;;;20;57
30343;BME280;17145;49.902;8.680;'2022-10-16 12:57:07';100160;;;20;56
30343;BME280;17145;49.902;8.680;'2022-10-16 12:59:52';100160;;;20;54
30343;BME280;17145;49.902;8.680;'2022-10-16 13:02:29';100160;;;19;53
30343;BME280;17145;49.902;8.680;'2022-10-16 13:05:18';100160;;;20;56
30343;BME280;17145;49.902;8.680;'2022-10-16 13:07:51';100160;;;20;55
30343;BME280;17145;49.902;8.680;'2022-10-16 13:10:22';100170;;;20;56
30343;BME280;17145;49.902;8.680;'2022-10-16 13:12:55';100160;;;21;54
30343;BME280;17145;49.902;8.680;'2022-10-16 13:15:29';100160;;;21;54
30343;BME280;17145;49.902;8.680;'2022-10-16 13:18:04';100160;;;21;53
30343;BME280;17145;49.902;8.680;'2022-10-16 13:20:34';100160;;;21;52
30343;BME280;17145;49.902;8.680;'2022-10-16 13:23:11';100160;;;21;51
30343;BME280;17145;49.902;8.680;'2022-10-16 13:25:39';100170;;;21;51
30343;BME280;17145;49.902;8.680;'2022-10-16 13:28:13';100160;;;21;50
30343;BME280;17145;49.902;8.680;'2022-10-16 13:30:46';100170;;;21;51
30343;BME280;17145;49.902;8.680;'2022-10-16 13:33:25';100170;;;21;51
30343;BME280;17145;49.902;8.680;'2022-10-16 13:35:59';100180;;;21;52
30343;BME280;17145;49.902;8.680;'2022-10-16 13:38:32';100190;;;21;51
30343;BME280;17145;49.902;8.680;'2022-10-16 13:41:08';100180;;;21;53
30343;BME280;17145;49.902;8.680;'2022-10-16 13:43:42';100180;;;20;51
30343;BME280;17145;49.902;8.680;'2022-10-16 13:46:17';100170;;;21;51
30343;BME280;17145;49.902;8.680;'2022-10-16 13:48:50';100170;;;21;51
30343;BME280;17145;49.902;8.680;'2022-10-16 13:51:26';100160;;;21;51
30343;BME280;17145;49.902;8.680;'2022-10-16 13:54:01';100160;;;21;51
30343;BME280;17145;49.902;8.680;'2022-10-16 13:56:31';100160;;;22;51
30343;BME280;17145;49.902;8.680;'2022-10-16 13:59:02';100160;;;22;51
30343;BME280;17145;49.902;8.680;'2022-10-16 14:01:38';100150;;;21;49
30343;BME280;17145;49.902;8.680;'2022-10-16 14:04:18';100150;;;21;50
30343;BME280;17145;49.902;8.680;'2022-10-16 14:06:52';100140;;;21;50
30343;BME280;17145;49.902;8.680;'2022-10-16 14:09:25';100140;;;21;51
30343;BME280;17145;49.902;8.680;'2022-10-16 14:14:34';100160;;;21;51
30343;BME280;17145;49.902;8.680;'2022-10-16 14:17:04';100160;;;20;50
30343;BME280;17145;49.902;8.680;'2022-10-16 14:19:32';100160;;;21;51
30343;BME280;17145;49.902;8.680;'2022-10-16 14:22:02';100160;;;20;52
30343;BME280;17145;49.902;8.680;'2022-10-16 14:24:35';100150;;;21;52
30343;BME280;17145;49.902;8.680;'2022-10-16 14:27:05';100150;;;21;52
30343;BME280;17145;49.902;8.680;'2022-10-16 14:29:37';100150;;;21;50
30343;BME280;17145;49.902;8.680;'2022-10-16 14:32:11';100150;;;21;50
30343;BME280;17145;49.902;8.680;'2022-10-16 14:34:43';100160;;;21;51
30343;BME280;17145;49.902;8.680;'2022-10-16 14:37:15';100170;;;21;50
30343;BME280;17145;49.902;8.680;'2022-10-16 14:39:42';100170;;;21;48
30343;BME280;17145;49.902;8.680;'2022-10-16 14:42:22';100170;;;21;50
30343;BME280;17145;49.902;8.680;'2022-10-16 14:44:50';100170;;;21;51
30343;BME280;17145;49.902;8.680;'2022-10-16 14:47:23';100180;;;21;49
30343;BME280;17145;49.902;8.680;'2022-10-16 14:49:53';100180;;;21;49
30343;BME280;17145;49.902;8.680;'2022-10-16 14:52:27';100180;;;21;49
30343;BME280;17145;49.902;8.680;'2022-10-16 14:54:57';100180;;;21;49
30343;BME280;17145;49.902;8.680;'2022-10-16 14:57:39';100180;;;21;50
30343;BME280;17145;49.902;8.680;'2022-10-16 15:00:17';100180;;;21;51
30343;BME280;17145;49.902;8.680;'2022-10-16 15:03:00';100170;;;21;50
30343;BME280;17145;49.902;8.680;'2022-10-16 15:05:40';100170;;;21;51
30343;BME280;17145;49.902;8.680;'2022-10-16 15:08:25';100180;;;21;50
30343;BME280;17145;49.902;8.680;'2022-10-16 15:11:04';100180;;;21;49
30343;BME280;17145;49.902;8.680;'2022-10-16 15:13:49';100180;;;21;49
30343;BME280;17145;49.902;8.680;'2022-10-16 15:16:26';100180;;;21;50
30343;BME280;17145;49.902;8.680;'2022-10-16 15:19:06';100190;;;21;50
30343;BME280;17145;49.902;8.680;'2022-10-16 15:21:43';100190;;;21;51
30343;BME280;17145;49.902;8.680;'2022-10-16 15:24:24';100200;;;20;51
30343;BME280;17145;49.902;8.680;'2022-10-16 15:27:01';100190;;;20;52
30343;BME280;17145;49.902;8.680;'2022-10-16 15:29:31';100190;;;21;52
30343;BME280;17145;49.902;8.680;'2022-10-16 15:31:59';100190;;;20;52
30343;BME280;17145;49.902;8.680;'2022-10-16 15:34:28';100190;;;20;52
30343;BME280;17145;49.902;8.680;'2022-10-16 15:36:56';100180;;;20;52
30343;BME280;17145;49.902;8.680;'2022-10-16 15:39:26';100180;;;20;52
30343;BME280;17145;49.902;8.680;'2022-10-16 15:42:03';100180;;;20;52
30343;BME280;17145;49.902;8.680;'2022-10-16 15:44:39';100190;;;20;52
30343;BME280;17145;49.902;8.680;'2022-10-16 15:47:16';100190;;;20;53
30343;BME280;17145;49.902;8.680;'2022-10-16 15:49:44';100180;;;20;53
30343;BME280;17145;49.902;8.680;'2022-10-16 15:52:18';100180;;;20;54
30343;BME280;17145;49.902;8.680;'2022-10-16 15:54:47';100190;;;20;55
30343;BME280;17145;49.902;8.680;'2022-10-16 15:57:16';100190;;;20;56
30343;BME280;17145;49.902;8.680;'2022-10-16 15:59:44';100190;;;20;57
30343;BME280;17145;49.902;8.680;'2022-10-16 16:02:22';100190;;;20;56
30343;BME280;17145;49.902;8.680;'2022-10-16 16:04:50';100180;;;20;57
30343;BME280;17145;49.902;8.680;'2022-10-16 16:07:23';100190;;;19;58
30343;BME280;17145;49.902;8.680;'2022-10-16 16:09:53';100190;;;19;58
30343;BME280;17145;49.902;8.680;'2022-10-16 16:12:22';100180;;;19;58
30343;BME280;17145;49.902;8.680;'2022-10-16 16:14:52';100180;;;20;58
30343;BME280;17145;49.902;8.680;'2022-10-16 16:17:24';100180;;;19;58
30343;BME280;17145;49.902;8.680;'2022-10-16 16:19:55';100180;;;19;58
30343;BME280;17145;49.902;8.680;'2022-10-16 16:22:29';100180;;;19;59
30343;BME280;17145;49.902;8.680;'2022-10-16 16:24:57';100180;;;19;59
30343;BME280;17145;49.902;8.680;'2022-10-16 16:27:29';100180;;;19;59
30343;BME280;17145;49.902;8.680;'2022-10-16 16:30:15';100170;;;19;59
30343;BME280;17145;49.902;8.680;'2022-10-16 16:32:55';100170;;;19;58
30343;BME280;17145;49.902;8.680;'2022-10-16 16:35:26';100170;;;19;58
30343;BME280;17145;49.902;8.680;'2022-10-16 16:37:55';100170;;;18;58